sensor_id;sensor_type;location;lat;lon;timestamp;P1;durP1;ratioP1;P2;durP2;ratioP2
18320;SDS011;54904;54.350;18.664;2023-01-30T00:01:19;8.23;;;6.07;;
18320;SDS011;54904;54.350;18.664;2023-01-30T00:03:49;8.33;;;5.70;;
18320;SDS011;54904;54.350;18.664;2023-01-30T00:06:17;10.73;;;7.23;;
18320;SDS011;54904;54.350;18.664;2023-01-30T00:08:44;8.27;;;5.80;;
18320;SDS011;54904;54.350;18.664;2023-01-30T00:11:12;9.03;;;6.83;;
18320;SDS011;54904;54.350;18.664;2023-01-30T00:13:41;12.17;;;7.47;;
18320;SDS011;54904;54.350;18.664;2023-01-30T00:16:09;12.20;;;6.93;;
18320;SDS011;54904;54.350;18.664;2023-01-30T00:18:36;10.03;;;7.40;;
18320;SDS011;54904;54.350;18.664;2023-01-30T00:21:07;10.03;;;7.30;;
18320;SDS011;54904;54.350;18.664;2023-01-30T00:23:35;10.30;;;6.67;;
18320;SDS011;54904;54.350;18.664;2023-01-30T00:26:03;7.23;;;5.60;;
18320;SDS011;54904;54.350;18.664;2023-01-30T00:28:31;9.83;;;6.50;;
18320;SDS011;54904;54.350;18.664;2023-01-30T00:30:58;7.80;;;5.60;;
18320;SDS011;54904;54.350;18.664;2023-01-30T00:33:26;10.70;;;7.20;;
18320;SDS011;54904;54.350;18.664;2023-01-30T00:35:53;11.50;;;7.97;;
18320;SDS011;54904;54.350;18.664;2023-01-30T00:38:23;9.67;;;6.83;;
18320;SDS011;54904;54.350;18.664;2023-01-30T00:40:50;12.00;;;8.13;;
18320;SDS011;54904;54.350;18.664;2023-01-30T00:43:18;11.73;;;7.90;;
18320;SDS011;54904;54.350;18.664;2023-01-30T00:46:07;10.03;;;7.30;;
18320;SDS011;54904;54.350;18.664;2023-01-30T00:49:04;8.53;;;6.40;;
18320;SDS011;54904;54.350;18.664;2023-01-30T00:51:31;12.53;;;7.27;;
18320;SDS011;54904;54.350;18.664;2023-01-30T00:53:59;9.77;;;7.07;;
18320;SDS011;54904;54.350;18.664;2023-01-30T00:56:26;8.73;;;6.40;;
18320;SDS011;54904;54.350;18.664;2023-01-30T00:58:55;8.30;;;6.10;;
18320;SDS011;54904;54.350;18.664;2023-01-30T01:01:23;8.47;;;6.27;;
18320;SDS011;54904;54.350;18.664;2023-01-30T01:03:50;6.73;;;5.70;;
18320;SDS011;54904;54.350;18.664;2023-01-30T01:06:17;9.00;;;6.30;;
18320;SDS011;54904;54.350;18.664;2023-01-30T01:08:44;10.73;;;7.37;;
18320;SDS011;54904;54.350;18.664;2023-01-30T01:11:12;12.13;;;7.77;;
18320;SDS011;54904;54.350;18.664;2023-01-30T01:13:49;10.53;;;7.03;;
18320;SDS011;54904;54.350;18.664;2023-01-30T01:16:19;9.47;;;6.20;;
18320;SDS011;54904;54.350;18.664;2023-01-30T01:18:48;9.67;;;6.93;;
18320;SDS011;54904;54.350;18.664;2023-01-30T01:21:16;9.80;;;6.97;;
18320;SDS011;54904;54.350;18.664;2023-01-30T01:23:48;9.53;;;6.93;;
18320;SDS011;54904;54.350;18.664;2023-01-30T01:26:18;10.00;;;6.97;;
18320;SDS011;54904;54.350;18.664;2023-01-30T01:28:46;9.33;;;6.20;;
18320;SDS011;54904;54.350;18.664;2023-01-30T01:31:14;9.77;;;6.97;;
18320;SDS011;54904;54.350;18.664;2023-01-30T01:33:42;10.80;;;7.00;;
18320;SDS011;54904;54.350;18.664;2023-01-30T01:36:09;10.27;;;6.63;;
18320;SDS011;54904;54.350;18.664;2023-01-30T01:38:36;9.20;;;6.40;;
18320;SDS011;54904;54.350;18.664;2023-01-30T01:41:03;10.17;;;7.40;;
18320;SDS011;54904;54.350;18.664;2023-01-30T01:43:32;10.10;;;6.67;;
18320;SDS011;54904;54.350;18.664;2023-01-30T01:46:02;6.30;;;5.30;;
18320;SDS011;54904;54.350;18.664;2023-01-30T01:48:35;9.03;;;6.70;;
18320;SDS011;54904;54.350;18.664;2023-01-30T01:51:05;8.93;;;6.67;;
18320;SDS011;54904;54.350;18.664;2023-01-30T01:53:38;10.20;;;6.93;;
18320;SDS011;54904;54.350;18.664;2023-01-30T01:56:09;6.97;;;5.67;;
18320;SDS011;54904;54.350;18.664;2023-01-30T01:58:41;8.27;;;6.27;;
18320;SDS011;54904;54.350;18.664;2023-01-30T02:03:55;8.40;;;6.07;;
18320;SDS011;54904;54.350;18.664;2023-01-30T02:06:26;9.30;;;6.00;;
18320;SDS011;54904;54.350;18.664;2023-01-30T02:08:54;9.50;;;6.30;;
18320;SDS011;54904;54.350;18.664;2023-01-30T02:11:26;7.40;;;5.37;;
18320;SDS011;54904;54.350;18.664;2023-01-30T02:13:58;8.53;;;5.63;;
18320;SDS011;54904;54.350;18.664;2023-01-30T02:16:26;8.87;;;6.17;;
18320;SDS011;54904;54.350;18.664;2023-01-30T02:18:54;9.43;;;6.43;;
18320;SDS011;54904;54.350;18.664;2023-01-30T02:21:36;8.47;;;6.27;;
18320;SDS011;54904;54.350;18.664;2023-01-30T02:24:43;11.50;;;7.00;;
18320;SDS011;54904;54.350;18.664;2023-01-30T02:27:40;9.90;;;6.90;;
18320;SDS011;54904;54.350;18.664;2023-01-30T02:30:36;11.53;;;6.60;;
18320;SDS011;54904;54.350;18.664;2023-01-30T02:33:21;11.40;;;7.53;;
18320;SDS011;54904;54.350;18.664;2023-01-30T02:35:58;8.13;;;5.93;;
18320;SDS011;54904;54.350;18.664;2023-01-30T02:38:34;8.63;;;6.20;;
18320;SDS011;54904;54.350;18.664;2023-01-30T02:41:10;11.23;;;7.53;;
18320;SDS011;54904;54.350;18.664;2023-01-30T02:43:49;10.70;;;7.03;;
18320;SDS011;54904;54.350;18.664;2023-01-30T02:46:25;8.40;;;5.97;;
18320;SDS011;54904;54.350;18.664;2023-01-30T02:48:59;9.40;;;7.03;;
18320;SDS011;54904;54.350;18.664;2023-01-30T02:51:32;8.97;;;6.30;;
18320;SDS011;54904;54.350;18.664;2023-01-30T02:54:04;10.33;;;6.70;;
18320;SDS011;54904;54.350;18.664;2023-01-30T02:56:41;9.73;;;6.43;;
18320;SDS011;54904;54.350;18.664;2023-01-30T02:59:10;11.13;;;7.17;;
18320;SDS011;54904;54.350;18.664;2023-01-30T03:01:50;9.33;;;6.37;;
18320;SDS011;54904;54.350;18.664;2023-01-30T03:04:51;10.63;;;7.00;;
18320;SDS011;54904;54.350;18.664;2023-01-30T03:07:43;9.70;;;6.60;;
18320;SDS011;54904;54.350;18.664;2023-01-30T03:10:16;10.83;;;7.00;;
18320;SDS011;54904;54.350;18.664;2023-01-30T03:12:56;8.93;;;6.73;;
18320;SDS011;54904;54.350;18.664;2023-01-30T03:15:29;10.50;;;7.03;;
18320;SDS011;54904;54.350;18.664;2023-01-30T03:18:01;11.57;;;7.43;;
18320;SDS011;54904;54.350;18.664;2023-01-30T03:20:28;9.07;;;5.97;;
18320;SDS011;54904;54.350;18.664;2023-01-30T03:22:57;10.27;;;6.73;;
18320;SDS011;54904;54.350;18.664;2023-01-30T03:25:24;7.57;;;5.47;;
18320;SDS011;54904;54.350;18.664;2023-01-30T03:27:52;10.27;;;5.83;;
18320;SDS011;54904;54.350;18.664;2023-01-30T03:30:22;8.23;;;5.27;;
18320;SDS011;54904;54.350;18.664;2023-01-30T03:32:58;7.37;;;5.40;;
18320;SDS011;54904;54.350;18.664;2023-01-30T03:35:27;6.40;;;4.97;;
18320;SDS011;54904;54.350;18.664;2023-01-30T03:37:55;7.13;;;4.80;;
18320;SDS011;54904;54.350;18.664;2023-01-30T03:40:24;6.20;;;4.57;;
18320;SDS011;54904;54.350;18.664;2023-01-30T03:42:52;5.93;;;4.33;;
18320;SDS011;54904;54.350;18.664;2023-01-30T03:45:19;5.13;;;4.57;;
18320;SDS011;54904;54.350;18.664;2023-01-30T03:47:47;7.03;;;4.37;;
18320;SDS011;54904;54.350;18.664;2023-01-30T03:50:17;5.27;;;4.27;;
18320;SDS011;54904;54.350;18.664;2023-01-30T03:52:44;5.67;;;4.10;;
18320;SDS011;54904;54.350;18.664;2023-01-30T03:55:15;4.77;;;4.27;;
18320;SDS011;54904;54.350;18.664;2023-01-30T03:57:43;3.50;;;3.20;;
18320;SDS011;54904;54.350;18.664;2023-01-30T04:00:10;6.43;;;4.53;;
18320;SDS011;54904;54.350;18.664;2023-01-30T04:02:47;4.70;;;3.77;;
18320;SDS011;54904;54.350;18.664;2023-01-30T04:05:17;3.63;;;3.33;;
18320;SDS011;54904;54.350;18.664;2023-01-30T04:07:54;4.87;;;3.60;;
18320;SDS011;54904;54.350;18.664;2023-01-30T04:10:23;4.00;;;2.93;;
18320;SDS011;54904;54.350;18.664;2023-01-30T04:12:50;3.30;;;3.00;;
18320;SDS011;54904;54.350;18.664;2023-01-30T04:15:18;3.00;;;2.67;;
18320;SDS011;54904;54.350;18.664;2023-01-30T04:17:45;2.77;;;2.57;;
18320;SDS011;54904;54.350;18.664;2023-01-30T04:20:37;4.57;;;3.50;;
18320;SDS011;54904;54.350;18.664;2023-01-30T04:23:05;3.53;;;2.70;;
18320;SDS011;54904;54.350;18.664;2023-01-30T04:25:32;5.33;;;3.10;;
18320;SDS011;54904;54.350;18.664;2023-01-30T04:27:59;3.47;;;2.60;;
18320;SDS011;54904;54.350;18.664;2023-01-30T04:30:31;5.60;;;2.77;;
18320;SDS011;54904;54.350;18.664;2023-01-30T04:33:24;3.30;;;2.80;;
18320;SDS011;54904;54.350;18.664;2023-01-30T04:35:54;3.03;;;2.83;;
18320;SDS011;54904;54.350;18.664;2023-01-30T04:38:24;5.37;;;2.73;;
18320;SDS011;54904;54.350;18.664;2023-01-30T04:40:53;3.07;;;2.53;;
18320;SDS011;54904;54.350;18.664;2023-01-30T04:43:21;2.57;;;2.33;;
18320;SDS011;54904;54.350;18.664;2023-01-30T04:46:08;2.40;;;2.20;;
18320;SDS011;54904;54.350;18.664;2023-01-30T04:48:35;2.90;;;2.30;;
18320;SDS011;54904;54.350;18.664;2023-01-30T04:51:05;2.17;;;2.07;;
18320;SDS011;54904;54.350;18.664;2023-01-30T04:53:34;2.70;;;2.50;;
18320;SDS011;54904;54.350;18.664;2023-01-30T04:56:01;2.00;;;1.90;;
18320;SDS011;54904;54.350;18.664;2023-01-30T04:58:29;2.87;;;2.37;;
18320;SDS011;54904;54.350;18.664;2023-01-30T05:01:10;2.47;;;2.20;;
18320;SDS011;54904;54.350;18.664;2023-01-30T05:03:39;2.97;;;2.53;;
18320;SDS011;54904;54.350;18.664;2023-01-30T05:06:07;3.90;;;2.60;;
18320;SDS011;54904;54.350;18.664;2023-01-30T05:08:34;3.13;;;2.50;;
18320;SDS011;54904;54.350;18.664;2023-01-30T05:11:02;2.77;;;2.30;;
18320;SDS011;54904;54.350;18.664;2023-01-30T05:13:29;2.00;;;1.90;;
18320;SDS011;54904;54.350;18.664;2023-01-30T05:15:56;2.53;;;2.33;;
18320;SDS011;54904;54.350;18.664;2023-01-30T05:18:23;2.00;;;1.90;;
18320;SDS011;54904;54.350;18.664;2023-01-30T05:20:50;1.90;;;1.80;;
18320;SDS011;54904;54.350;18.664;2023-01-30T05:23:19;2.23;;;2.03;;
18320;SDS011;54904;54.350;18.664;2023-01-30T05:25:46;2.57;;;2.30;;
18320;SDS011;54904;54.350;18.664;2023-01-30T05:28:14;2.30;;;2.10;;
18320;SDS011;54904;54.350;18.664;2023-01-30T05:30:41;2.37;;;2.17;;
18320;SDS011;54904;54.350;18.664;2023-01-30T05:33:09;3.03;;;2.23;;
18320;SDS011;54904;54.350;18.664;2023-01-30T05:35:36;2.10;;;2.00;;
18320;SDS011;54904;54.350;18.664;2023-01-30T05:38:03;2.33;;;2.10;;
18320;SDS011;54904;54.350;18.664;2023-01-30T05:40:31;3.00;;;2.00;;
18320;SDS011;54904;54.350;18.664;2023-01-30T05:42:59;1.67;;;1.57;;
18320;SDS011;54904;54.350;18.664;2023-01-30T05:45:26;1.70;;;1.60;;
18320;SDS011;54904;54.350;18.664;2023-01-30T05:47:53;2.13;;;1.93;;
18320;SDS011;54904;54.350;18.664;2023-01-30T05:50:20;2.03;;;1.93;;
18320;SDS011;54904;54.350;18.664;2023-01-30T05:52:47;1.93;;;1.83;;
18320;SDS011;54904;54.350;18.664;2023-01-30T05:55:14;2.63;;;1.90;;
18320;SDS011;54904;54.350;18.664;2023-01-30T05:57:43;1.57;;;1.47;;
18320;SDS011;54904;54.350;18.664;2023-01-30T06:00:10;1.80;;;1.70;;
18320;SDS011;54904;54.350;18.664;2023-01-30T06:02:38;2.70;;;2.10;;
18320;SDS011;54904;54.350;18.664;2023-01-30T06:05:06;2.57;;;2.33;;
18320;SDS011;54904;54.350;18.664;2023-01-30T06:07:33;2.43;;;2.23;;
18320;SDS011;54904;54.350;18.664;2023-01-30T06:10:00;2.57;;;2.10;;
18320;SDS011;54904;54.350;18.664;2023-01-30T06:12:28;3.97;;;2.40;;
18320;SDS011;54904;54.350;18.664;2023-01-30T06:14:56;1.93;;;1.77;;
18320;SDS011;54904;54.350;18.664;2023-01-30T06:17:23;1.50;;;1.40;;
18320;SDS011;54904;54.350;18.664;2023-01-30T06:19:50;2.00;;;1.90;;
18320;SDS011;54904;54.350;18.664;2023-01-30T06:22:17;2.20;;;2.00;;
18320;SDS011;54904;54.350;18.664;2023-01-30T06:24:44;1.70;;;1.60;;
18320;SDS011;54904;54.350;18.664;2023-01-30T06:27:12;1.63;;;1.53;;
18320;SDS011;54904;54.350;18.664;2023-01-30T06:29:39;2.10;;;1.70;;
18320;SDS011;54904;54.350;18.664;2023-01-30T06:32:07;1.70;;;1.60;;
18320;SDS011;54904;54.350;18.664;2023-01-30T06:34:34;2.17;;;1.97;;
18320;SDS011;54904;54.350;18.664;2023-01-30T06:37:02;2.17;;;1.97;;
18320;SDS011;54904;54.350;18.664;2023-01-30T06:39:29;2.20;;;2.00;;
18320;SDS011;54904;54.350;18.664;2023-01-30T06:41:56;1.50;;;1.40;;
18320;SDS011;54904;54.350;18.664;2023-01-30T06:44:23;1.60;;;1.50;;
18320;SDS011;54904;54.350;18.664;2023-01-30T06:46:51;1.60;;;1.50;;
18320;SDS011;54904;54.350;18.664;2023-01-30T06:49:19;3.20;;;2.00;;
18320;SDS011;54904;54.350;18.664;2023-01-30T06:51:46;1.60;;;1.50;;
18320;SDS011;54904;54.350;18.664;2023-01-30T06:54:14;1.40;;;1.30;;
18320;SDS011;54904;54.350;18.664;2023-01-30T06:56:41;2.57;;;1.47;;
18320;SDS011;54904;54.350;18.664;2023-01-30T06:59:08;1.67;;;1.57;;
18320;SDS011;54904;54.350;18.664;2023-01-30T07:01:35;1.50;;;1.40;;
18320;SDS011;54904;54.350;18.664;2023-01-30T07:04:03;2.07;;;1.67;;
18320;SDS011;54904;54.350;18.664;2023-01-30T07:06:31;1.20;;;1.20;;
18320;SDS011;54904;54.350;18.664;2023-01-30T07:08:58;1.60;;;1.50;;
18320;SDS011;54904;54.350;18.664;2023-01-30T07:11:26;1.97;;;1.47;;
18320;SDS011;54904;54.350;18.664;2023-01-30T07:13:53;1.50;;;1.40;;
18320;SDS011;54904;54.350;18.664;2023-01-30T07:16:20;3.87;;;1.50;;
18320;SDS011;54904;54.350;18.664;2023-01-30T07:18:53;2.30;;;1.73;;
18320;SDS011;54904;54.350;18.664;2023-01-30T07:21:21;1.90;;;1.70;;
18320;SDS011;54904;54.350;18.664;2023-01-30T07:23:50;2.10;;;1.57;;
18320;SDS011;54904;54.350;18.664;2023-01-30T07:26:17;1.93;;;1.33;;
18320;SDS011;54904;54.350;18.664;2023-01-30T07:28:44;3.13;;;1.70;;
18320;SDS011;54904;54.350;18.664;2023-01-30T07:31:11;2.23;;;1.60;;
18320;SDS011;54904;54.350;18.664;2023-01-30T07:33:39;1.80;;;1.50;;
18320;SDS011;54904;54.350;18.664;2023-01-30T07:36:06;2.23;;;1.33;;
18320;SDS011;54904;54.350;18.664;2023-01-30T07:38:34;1.77;;;1.43;;
18320;SDS011;54904;54.350;18.664;2023-01-30T07:41:02;1.70;;;1.60;;
18320;SDS011;54904;54.350;18.664;2023-01-30T07:43:29;1.57;;;1.47;;
18320;SDS011;54904;54.350;18.664;2023-01-30T07:45:56;1.70;;;1.60;;
18320;SDS011;54904;54.350;18.664;2023-01-30T07:48:25;1.67;;;1.40;;
18320;SDS011;54904;54.350;18.664;2023-01-30T07:50:54;1.30;;;1.20;;
18320;SDS011;54904;54.350;18.664;2023-01-30T07:53:21;1.03;;;0.80;;
18320;SDS011;54904;54.350;18.664;2023-01-30T07:55:49;1.00;;;1.00;;
18320;SDS011;54904;54.350;18.664;2023-01-30T07:58:17;1.20;;;1.13;;
18320;SDS011;54904;54.350;18.664;2023-01-30T08:00:44;1.30;;;1.20;;
18320;SDS011;54904;54.350;18.664;2023-01-30T08:03:12;1.27;;;1.20;;
18320;SDS011;54904;54.350;18.664;2023-01-30T08:05:40;1.33;;;1.23;;
18320;SDS011;54904;54.350;18.664;2023-01-30T08:08:08;1.50;;;1.40;;
18320;SDS011;54904;54.350;18.664;2023-01-30T08:10:35;1.40;;;1.30;;
18320;SDS011;54904;54.350;18.664;2023-01-30T08:13:02;2.60;;;1.40;;
18320;SDS011;54904;54.350;18.664;2023-01-30T08:15:31;1.23;;;1.13;;
18320;SDS011;54904;54.350;18.664;2023-01-30T08:17:58;1.43;;;0.90;;
18320;SDS011;54904;54.350;18.664;2023-01-30T08:20:26;1.73;;;1.63;;
18320;SDS011;54904;54.350;18.664;2023-01-30T08:22:54;1.30;;;1.20;;
18320;SDS011;54904;54.350;18.664;2023-01-30T08:25:21;1.60;;;1.50;;
18320;SDS011;54904;54.350;18.664;2023-01-30T08:27:49;2.50;;;1.63;;
18320;SDS011;54904;54.350;18.664;2023-01-30T08:30:17;1.30;;;1.20;;
18320;SDS011;54904;54.350;18.664;2023-01-30T08:32:46;1.87;;;1.63;;
18320;SDS011;54904;54.350;18.664;2023-01-30T08:35:13;1.47;;;1.33;;
18320;SDS011;54904;54.350;18.664;2023-01-30T08:37:40;1.50;;;1.40;;
18320;SDS011;54904;54.350;18.664;2023-01-30T08:40:08;2.20;;;1.50;;
18320;SDS011;54904;54.350;18.664;2023-01-30T08:42:36;1.90;;;1.60;;
18320;SDS011;54904;54.350;18.664;2023-01-30T08:45:04;1.87;;;1.50;;
18320;SDS011;54904;54.350;18.664;2023-01-30T08:47:32;1.60;;;1.30;;
18320;SDS011;54904;54.350;18.664;2023-01-30T08:50:01;2.50;;;1.63;;
18320;SDS011;54904;54.350;18.664;2023-01-30T08:52:28;2.00;;;1.80;;
18320;SDS011;54904;54.350;18.664;2023-01-30T08:54:57;1.60;;;1.50;;
18320;SDS011;54904;54.350;18.664;2023-01-30T08:57:24;2.30;;;2.03;;
18320;SDS011;54904;54.350;18.664;2023-01-30T08:59:51;1.90;;;1.70;;
18320;SDS011;54904;54.350;18.664;2023-01-30T09:02:18;2.07;;;1.60;;
18320;SDS011;54904;54.350;18.664;2023-01-30T09:04:45;1.87;;;1.77;;
18320;SDS011;54904;54.350;18.664;2023-01-30T09:07:14;1.90;;;1.70;;
18320;SDS011;54904;54.350;18.664;2023-01-30T09:09:41;1.90;;;1.73;;
18320;SDS011;54904;54.350;18.664;2023-01-30T09:12:08;1.80;;;1.70;;
18320;SDS011;54904;54.350;18.664;2023-01-30T09:14:35;1.53;;;1.43;;
18320;SDS011;54904;54.350;18.664;2023-01-30T09:17:03;2.23;;;1.80;;
18320;SDS011;54904;54.350;18.664;2023-01-30T09:19:30;2.87;;;2.17;;
18320;SDS011;54904;54.350;18.664;2023-01-30T09:21:57;4.67;;;1.90;;
18320;SDS011;54904;54.350;18.664;2023-01-30T09:24:25;2.90;;;2.00;;
18320;SDS011;54904;54.350;18.664;2023-01-30T09:26:53;3.13;;;1.63;;
18320;SDS011;54904;54.350;18.664;2023-01-30T09:29:23;3.87;;;1.87;;
18320;SDS011;54904;54.350;18.664;2023-01-30T09:31:50;3.83;;;2.17;;
18320;SDS011;54904;54.350;18.664;2023-01-30T09:34:18;2.80;;;2.33;;
18320;SDS011;54904;54.350;18.664;2023-01-30T09:36:45;2.00;;;1.77;;
18320;SDS011;54904;54.350;18.664;2023-01-30T09:39:12;3.27;;;1.70;;
18320;SDS011;54904;54.350;18.664;2023-01-30T09:41:44;3.83;;;1.97;;
18320;SDS011;54904;54.350;18.664;2023-01-30T09:44:25;4.43;;;2.07;;
18320;SDS011;54904;54.350;18.664;2023-01-30T09:47:09;4.90;;;2.30;;
18320;SDS011;54904;54.350;18.664;2023-01-30T09:49:39;2.30;;;1.93;;
18320;SDS011;54904;54.350;18.664;2023-01-30T09:52:16;4.73;;;1.93;;
18320;SDS011;54904;54.350;18.664;2023-01-30T09:54:52;5.03;;;1.97;;
18320;SDS011;54904;54.350;18.664;2023-01-30T09:57:26;2.60;;;1.90;;
18320;SDS011;54904;54.350;18.664;2023-01-30T09:59:55;4.80;;;2.50;;
18320;SDS011;54904;54.350;18.664;2023-01-30T10:02:39;4.53;;;2.27;;
18320;SDS011;54904;54.350;18.664;2023-01-30T10:05:13;5.13;;;2.20;;
18320;SDS011;54904;54.350;18.664;2023-01-30T10:07:56;4.33;;;2.00;;
18320;SDS011;54904;54.350;18.664;2023-01-30T10:10:41;6.27;;;2.70;;
18320;SDS011;54904;54.350;18.664;2023-01-30T10:13:22;6.37;;;2.47;;
18320;SDS011;54904;54.350;18.664;2023-01-30T10:15:58;3.70;;;2.13;;
18320;SDS011;54904;54.350;18.664;2023-01-30T10:18:44;9.07;;;2.63;;
18320;SDS011;54904;54.350;18.664;2023-01-30T10:21:35;3.27;;;1.97;;
18320;SDS011;54904;54.350;18.664;2023-01-30T10:24:15;4.97;;;2.10;;
18320;SDS011;54904;54.350;18.664;2023-01-30T10:26:58;3.77;;;2.27;;
18320;SDS011;54904;54.350;18.664;2023-01-30T10:29:29;5.60;;;2.20;;
18320;SDS011;54904;54.350;18.664;2023-01-30T10:31:59;4.67;;;2.23;;
18320;SDS011;54904;54.350;18.664;2023-01-30T10:34:33;2.50;;;2.00;;
18320;SDS011;54904;54.350;18.664;2023-01-30T10:37:04;3.10;;;2.50;;
18320;SDS011;54904;54.350;18.664;2023-01-30T10:39:35;6.60;;;2.50;;
18320;SDS011;54904;54.350;18.664;2023-01-30T10:42:08;5.53;;;2.20;;
18320;SDS011;54904;54.350;18.664;2023-01-30T10:44:39;2.67;;;2.03;;
18320;SDS011;54904;54.350;18.664;2023-01-30T10:47:13;1.77;;;1.60;;
18320;SDS011;54904;54.350;18.664;2023-01-30T10:50:01;3.37;;;2.00;;
18320;SDS011;54904;54.350;18.664;2023-01-30T10:52:40;2.83;;;1.80;;
18320;SDS011;54904;54.350;18.664;2023-01-30T10:55:14;2.47;;;1.90;;
18320;SDS011;54904;54.350;18.664;2023-01-30T10:57:49;4.80;;;2.03;;
18320;SDS011;54904;54.350;18.664;2023-01-30T11:00:27;4.17;;;1.70;;
18320;SDS011;54904;54.350;18.664;2023-01-30T11:03:17;2.43;;;1.57;;
18320;SDS011;54904;54.350;18.664;2023-01-30T11:05:48;2.20;;;1.43;;
18320;SDS011;54904;54.350;18.664;2023-01-30T11:08:18;1.83;;;1.70;;
18320;SDS011;54904;54.350;18.664;2023-01-30T11:10:48;5.70;;;1.77;;
18320;SDS011;54904;54.350;18.664;2023-01-30T11:13:16;3.40;;;1.63;;
18320;SDS011;54904;54.350;18.664;2023-01-30T11:15:47;1.87;;;1.50;;
18320;SDS011;54904;54.350;18.664;2023-01-30T11:18:16;2.23;;;1.77;;
18320;SDS011;54904;54.350;18.664;2023-01-30T11:20:55;2.23;;;1.90;;
18320;SDS011;54904;54.350;18.664;2023-01-30T11:23:30;1.60;;;1.30;;
18320;SDS011;54904;54.350;18.664;2023-01-30T11:25:59;1.73;;;1.43;;
18320;SDS011;54904;54.350;18.664;2023-01-30T11:28:29;3.90;;;2.30;;
18320;SDS011;54904;54.350;18.664;2023-01-30T11:31:03;3.83;;;1.80;;
18320;SDS011;54904;54.350;18.664;2023-01-30T11:33:33;3.63;;;2.10;;
18320;SDS011;54904;54.350;18.664;2023-01-30T11:36:04;3.40;;;1.90;;
18320;SDS011;54904;54.350;18.664;2023-01-30T11:38:34;3.40;;;2.00;;
18320;SDS011;54904;54.350;18.664;2023-01-30T11:41:05;7.40;;;2.53;;
18320;SDS011;54904;54.350;18.664;2023-01-30T11:43:43;4.93;;;2.33;;
18320;SDS011;54904;54.350;18.664;2023-01-30T11:46:14;3.40;;;2.23;;
18320;SDS011;54904;54.350;18.664;2023-01-30T11:48:49;4.87;;;2.30;;
18320;SDS011;54904;54.350;18.664;2023-01-30T11:51:19;5.97;;;2.57;;
18320;SDS011;54904;54.350;18.664;2023-01-30T11:53:49;3.73;;;2.00;;
18320;SDS011;54904;54.350;18.664;2023-01-30T11:56:32;9.03;;;2.80;;
18320;SDS011;54904;54.350;18.664;2023-01-30T11:59:01;4.07;;;2.00;;
18320;SDS011;54904;54.350;18.664;2023-01-30T12:01:34;5.17;;;2.20;;
18320;SDS011;54904;54.350;18.664;2023-01-30T12:04:04;4.83;;;2.30;;
18320;SDS011;54904;54.350;18.664;2023-01-30T12:06:35;5.30;;;2.03;;
18320;SDS011;54904;54.350;18.664;2023-01-30T12:09:04;9.60;;;2.37;;
18320;SDS011;54904;54.350;18.664;2023-01-30T12:11:39;9.20;;;2.33;;
18320;SDS011;54904;54.350;18.664;2023-01-30T12:14:15;4.00;;;2.20;;
18320;SDS011;54904;54.350;18.664;2023-01-30T12:16:56;7.13;;;2.67;;
18320;SDS011;54904;54.350;18.664;2023-01-30T12:19:32;8.13;;;2.53;;
18320;SDS011;54904;54.350;18.664;2023-01-30T12:22:09;7.57;;;2.30;;
18320;SDS011;54904;54.350;18.664;2023-01-30T12:24:44;7.90;;;2.60;;
18320;SDS011;54904;54.350;18.664;2023-01-30T12:27:18;8.20;;;2.33;;
18320;SDS011;54904;54.350;18.664;2023-01-30T12:29:53;5.47;;;2.50;;
18320;SDS011;54904;54.350;18.664;2023-01-30T12:32:27;5.83;;;2.03;;
18320;SDS011;54904;54.350;18.664;2023-01-30T12:34:57;3.27;;;1.63;;
18320;SDS011;54904;54.350;18.664;2023-01-30T12:37:32;8.57;;;2.33;;
18320;SDS011;54904;54.350;18.664;2023-01-30T12:40:11;9.17;;;2.30;;
18320;SDS011;54904;54.350;18.664;2023-01-30T12:42:57;7.87;;;2.37;;
18320;SDS011;54904;54.350;18.664;2023-01-30T12:45:44;7.27;;;2.37;;
18320;SDS011;54904;54.350;18.664;2023-01-30T12:51:11;6.00;;;1.73;;
18320;SDS011;54904;54.350;18.664;2023-01-30T12:53:51;7.13;;;1.80;;
18320;SDS011;54904;54.350;18.664;2023-01-30T12:59:18;4.67;;;1.80;;
18320;SDS011;54904;54.350;18.664;2023-01-30T13:01:55;4.23;;;1.87;;
18320;SDS011;54904;54.350;18.664;2023-01-30T13:04:38;6.10;;;2.00;;
18320;SDS011;54904;54.350;18.664;2023-01-30T13:07:13;6.87;;;2.33;;
18320;SDS011;54904;54.350;18.664;2023-01-30T13:10:02;7.97;;;2.20;;
18320;SDS011;54904;54.350;18.664;2023-01-30T13:12:39;9.20;;;2.30;;
18320;SDS011;54904;54.350;18.664;2023-01-30T13:15:15;9.93;;;2.60;;
18320;SDS011;54904;54.350;18.664;2023-01-30T13:17:50;6.00;;;1.70;;
18320;SDS011;54904;54.350;18.664;2023-01-30T13:20:40;4.40;;;1.60;;
18320;SDS011;54904;54.350;18.664;2023-01-30T13:23:16;6.30;;;1.70;;
18320;SDS011;54904;54.350;18.664;2023-01-30T13:25:47;5.03;;;1.50;;
18320;SDS011;54904;54.350;18.664;2023-01-30T13:28:25;4.87;;;2.07;;
18320;SDS011;54904;54.350;18.664;2023-01-30T13:30:56;6.97;;;1.83;;
18320;SDS011;54904;54.350;18.664;2023-01-30T13:33:27;8.40;;;2.70;;
18320;SDS011;54904;54.350;18.664;2023-01-30T13:36:02;9.40;;;3.03;;
18320;SDS011;54904;54.350;18.664;2023-01-30T13:38:37;11.00;;;2.70;;
18320;SDS011;54904;54.350;18.664;2023-01-30T13:41:08;9.63;;;3.13;;
18320;SDS011;54904;54.350;18.664;2023-01-30T13:43:40;5.83;;;2.00;;
18320;SDS011;54904;54.350;18.664;2023-01-30T13:46:13;5.20;;;2.13;;
18320;SDS011;54904;54.350;18.664;2023-01-30T13:48:48;7.50;;;2.10;;
18320;SDS011;54904;54.350;18.664;2023-01-30T13:51:33;5.47;;;2.27;;
18320;SDS011;54904;54.350;18.664;2023-01-30T13:54:23;3.20;;;1.60;;
18320;SDS011;54904;54.350;18.664;2023-01-30T13:57:00;3.23;;;1.50;;
18320;SDS011;54904;54.350;18.664;2023-01-30T13:59:45;2.17;;;1.30;;
18320;SDS011;54904;54.350;18.664;2023-01-30T14:08:59;4.83;;;1.80;;
18320;SDS011;54904;54.350;18.664;2023-01-30T14:11:34;4.30;;;2.27;;
18320;SDS011;54904;54.350;18.664;2023-01-30T14:14:04;5.20;;;2.47;;
18320;SDS011;54904;54.350;18.664;2023-01-30T14:16:49;5.70;;;2.23;;
18320;SDS011;54904;54.350;18.664;2023-01-30T14:19:18;5.70;;;2.17;;
18320;SDS011;54904;54.350;18.664;2023-01-30T14:21:53;5.53;;;2.30;;
18320;SDS011;54904;54.350;18.664;2023-01-30T14:24:23;3.87;;;2.00;;
18320;SDS011;54904;54.350;18.664;2023-01-30T14:26:59;4.60;;;1.93;;
18320;SDS011;54904;54.350;18.664;2023-01-30T14:29:53;5.50;;;2.00;;
18320;SDS011;54904;54.350;18.664;2023-01-30T14:35:24;4.63;;;1.80;;
18320;SDS011;54904;54.350;18.664;2023-01-30T14:40:44;4.03;;;1.73;;
18320;SDS011;54904;54.350;18.664;2023-01-30T14:43:48;4.60;;;1.93;;
18320;SDS011;54904;54.350;18.664;2023-01-30T14:49:23;6.13;;;2.00;;
18320;SDS011;54904;54.350;18.664;2023-01-30T14:51:55;8.97;;;2.27;;
18320;SDS011;54904;54.350;18.664;2023-01-30T14:54:25;11.20;;;2.40;;
18320;SDS011;54904;54.350;18.664;2023-01-30T14:56:57;7.80;;;2.50;;
18320;SDS011;54904;54.350;18.664;2023-01-30T14:59:28;8.40;;;2.70;;
18320;SDS011;54904;54.350;18.664;2023-01-30T15:02:03;8.23;;;2.20;;
18320;SDS011;54904;54.350;18.664;2023-01-30T15:05:01;8.53;;;2.40;;
18320;SDS011;54904;54.350;18.664;2023-01-30T15:07:34;5.23;;;2.07;;
18320;SDS011;54904;54.350;18.664;2023-01-30T15:10:10;2.80;;;1.90;;
18320;SDS011;54904;54.350;18.664;2023-01-30T15:16:00;7.60;;;2.20;;
18320;SDS011;54904;54.350;18.664;2023-01-30T15:18:36;8.07;;;2.10;;
18320;SDS011;54904;54.350;18.664;2023-01-30T15:21:21;5.73;;;2.20;;
18320;SDS011;54904;54.350;18.664;2023-01-30T15:24:23;3.90;;;1.70;;
18320;SDS011;54904;54.350;18.664;2023-01-30T15:27:12;5.53;;;1.93;;
18320;SDS011;54904;54.350;18.664;2023-01-30T15:29:54;8.63;;;2.73;;